createdAt,value
2023-01-03T00:01:50.883Z,100.00
2023-01-03T00:04:20.877Z,100.00
2023-01-03T00:06:52.333Z,100.00
2023-01-03T00:09:23.659Z,100.00
2023-01-03T00:12:13.164Z,100.00
2023-01-03T00:14:44.147Z,100.00
2023-01-03T00:17:13.261Z,100.00
2023-01-03T00:19:44.170Z,100.00
2023-01-03T00:22:14.840Z,100.00
2023-01-03T00:24:46.125Z,100.00
2023-01-03T00:27:16.045Z,100.00
2023-01-03T00:29:44.651Z,100.00
2023-01-03T00:32:13.483Z,100.00
2023-01-03T00:34:45.331Z,100.00
2023-01-03T00:37:15.449Z,100.00
2023-01-03T00:39:44.007Z,100.00
2023-01-03T00:42:12.867Z,100.00
2023-01-03T00:44:41.340Z,100.00
2023-01-03T00:47:09.634Z,100.00
2023-01-03T00:49:40.054Z,100.00
2023-01-03T00:52:08.447Z,100.00
2023-01-03T00:54:37.144Z,100.00
2023-01-03T00:57:05.562Z,100.00
2023-01-03T00:59:33.983Z,100.00
2023-01-03T01:02:02.308Z,100.00
2023-01-03T01:04:31.907Z,100.00
2023-01-03T01:07:03.597Z,100.00
2023-01-03T01:09:35.546Z,100.00
2023-01-03T01:12:07.331Z,100.00
2023-01-03T01:14:35.871Z,100.00
2023-01-03T01:17:09.668Z,100.00
2023-01-03T01:19:44.039Z,100.00
2023-01-03T01:22:13.038Z,100.00
2023-01-03T01:24:42.172Z,100.00
2023-01-03T01:27:10.679Z,100.00
2023-01-03T01:29:39.897Z,100.00
2023-01-03T01:32:08.445Z,100.00
2023-01-03T01:34:36.759Z,100.00
2023-01-03T01:37:05.073Z,100.00
2023-01-03T01:39:34.026Z,100.00
2023-01-03T01:42:30.288Z,100.00
2023-01-03T01:45:00.475Z,100.00
2023-01-03T01:47:52.563Z,100.00
2023-01-03T01:50:23.774Z,100.00
2023-01-03T01:53:20.629Z,100.00
2023-01-03T01:56:09.891Z,100.00
2023-01-03T01:58:41.745Z,100.00
2023-01-03T02:01:13.926Z,100.00
2023-01-03T02:03:47.175Z,100.00
2023-01-03T02:06:17.425Z,100.00
2023-01-03T02:08:45.931Z,100.00
2023-01-03T02:11:17.203Z,100.00
2023-01-03T02:14:07.119Z,100.00
2023-01-03T02:16:38.154Z,100.00
2023-01-03T02:19:30.754Z,100.00
2023-01-03T02:22:53.348Z,100.00
2023-01-03T02:25:36.911Z,100.00
2023-01-03T02:28:39.474Z,100.00
2023-01-03T02:31:14.098Z,100.00
2023-01-03T02:33:58.387Z,100.00
2023-01-03T02:36:34.259Z,100.00
2023-01-03T02:39:34.141Z,100.00
2023-01-03T02:42:38.652Z,100.00
2023-01-03T02:45:25.791Z,100.00
2023-01-03T02:48:12.274Z,100.00
2023-01-03T02:50:48.701Z,100.00
2023-01-03T02:53:27.625Z,100.00
2023-01-03T02:56:05.062Z,100.00
2023-01-03T02:58:38.023Z,100.00
2023-01-03T03:01:09.097Z,100.00
2023-01-03T03:03:40.210Z,100.00
2023-01-03T03:06:15.529Z,100.00
2023-01-03T03:08:46.384Z,100.00
2023-01-03T03:11:33.886Z,100.00
2023-01-03T03:14:13.057Z,100.00
2023-01-03T03:16:49.507Z,100.00
2023-01-03T03:19:42.059Z,100.00
2023-01-03T03:23:02.216Z,100.00
2023-01-03T03:25:41.890Z,100.00
2023-01-03T03:28:35.086Z,100.00
2023-01-03T03:31:11.448Z,100.00
2023-01-03T03:33:49.783Z,100.00
2023-01-03T03:36:23.342Z,100.00
2023-01-03T03:38:52.185Z,100.00
2023-01-03T03:41:48.106Z,100.00
2023-01-03T03:44:34.838Z,100.00
2023-01-03T03:47:52.800Z,100.00
2023-01-03T03:50:45.151Z,100.00
2023-01-03T03:53:16.592Z,100.00
2023-01-03T03:55:53.023Z,100.00
2023-01-03T03:58:32.392Z,100.00
2023-01-03T04:01:02.876Z,100.00
2023-01-03T04:03:33.015Z,100.00
2023-01-03T04:06:10.225Z,100.00
2023-01-03T04:08:38.605Z,100.00
2023-01-03T04:11:07.232Z,100.00
2023-01-03T04:13:38.184Z,100.00
2023-01-03T04:16:07.707Z,100.00
2023-01-03T04:18:36.185Z,100.00
2023-01-03T04:21:04.678Z,100.00
2023-01-03T04:23:33.113Z,100.00
2023-01-03T04:26:01.407Z,100.00
2023-01-03T04:28:29.805Z,100.00
2023-01-03T04:30:58.195Z,100.00
2023-01-03T04:33:26.734Z,100.00
2023-01-03T04:35:55.232Z,100.00
2023-01-03T04:38:23.979Z,100.00
2023-01-03T04:40:52.277Z,100.00
2023-01-03T04:43:39.477Z,100.00
2023-01-03T04:46:07.941Z,100.00
2023-01-03T04:48:36.332Z,100.00
2023-01-03T04:51:04.679Z,100.00
2023-01-03T04:53:33.020Z,100.00
2023-01-03T04:56:01.318Z,100.00
2023-01-03T04:58:29.578Z,100.00
2023-01-03T05:01:03.697Z,100.00
2023-01-03T05:03:32.089Z,100.00
2023-01-03T05:06:07.540Z,100.00
2023-01-03T05:08:35.979Z,100.00
2023-01-03T05:11:05.945Z,100.00
2023-01-03T05:13:34.242Z,100.00
2023-01-03T05:16:09.372Z,100.00
2023-01-03T05:18:38.555Z,100.00
2023-01-03T05:21:26.795Z,100.00
2023-01-03T05:24:13.651Z,100.00
2023-01-03T05:26:42.939Z,100.00
2023-01-03T05:29:13.356Z,100.00
2023-01-03T05:31:41.764Z,100.00
2023-01-03T05:34:10.298Z,100.00
2023-01-03T05:36:38.811Z,100.00
2023-01-03T05:39:08.468Z,100.00
2023-01-03T05:41:55.757Z,100.00
2023-01-03T05:44:24.256Z,100.00
2023-01-03T05:46:52.505Z,100.00
2023-01-03T05:49:20.852Z,100.00
2023-01-03T05:51:49.671Z,100.00
2023-01-03T05:54:21.471Z,100.00
2023-01-03T05:56:51.298Z,100.00
2023-01-03T05:59:22.951Z,100.00
2023-01-03T06:01:51.573Z,100.00
2023-01-03T06:04:20.735Z,100.00
2023-01-03T06:06:49.194Z,100.00
2023-01-03T06:09:17.649Z,100.00
2023-01-03T06:11:45.980Z,100.00
2023-01-03T06:14:14.379Z,100.00
2023-01-03T06:17:01.689Z,100.00
2023-01-03T06:19:30.897Z,100.00
2023-01-03T06:21:59.299Z,100.00
2023-01-03T06:24:27.631Z,100.00
2023-01-03T06:26:56.836Z,100.00
2023-01-03T06:29:25.198Z,100.00
2023-01-03T06:31:53.494Z,100.00
2023-01-03T06:34:21.747Z,100.00
2023-01-03T06:36:50.128Z,100.00
2023-01-03T06:39:18.404Z,100.00
2023-01-03T06:41:46.686Z,100.00
2023-01-03T06:44:15.045Z,100.00
2023-01-03T06:47:02.287Z,100.00
2023-01-03T06:49:49.369Z,100.00
2023-01-03T06:52:36.364Z,100.00
2023-01-03T06:55:10.108Z,100.00
2023-01-03T06:57:39.424Z,100.00
2023-01-03T07:00:08.657Z,100.00
2023-01-03T07:02:37.449Z,100.00
2023-01-03T07:05:06.261Z,100.00
2023-01-03T07:07:34.863Z,100.00
2023-01-03T07:10:05.863Z,100.00
2023-01-03T07:12:53.071Z,100.00
2023-01-03T07:15:21.584Z,100.00
2023-01-03T07:17:50.268Z,100.00
2023-01-03T07:20:18.869Z,100.00
2023-01-03T07:22:49.550Z,100.00
2023-01-03T07:25:18.058Z,100.00
2023-01-03T07:28:01.843Z,100.00
2023-01-03T07:30:46.631Z,100.00
2023-01-03T07:33:16.543Z,100.00
2023-01-03T07:35:45.954Z,100.00
2023-01-03T07:38:14.447Z,100.00
2023-01-03T07:40:42.873Z,100.00
2023-01-03T07:43:32.347Z,100.00
2023-01-03T07:46:00.713Z,100.00
2023-01-03T07:48:29.057Z,100.00
2023-01-03T07:50:58.585Z,100.00
2023-01-03T07:53:27.727Z,100.00
2023-01-03T07:56:07.683Z,100.00
2023-01-03T07:58:44.914Z,100.00
2023-01-03T08:01:16.519Z,100.00
2023-01-03T08:03:45.848Z,100.00
2023-01-03T08:06:18.554Z,100.00
2023-01-03T08:09:07.006Z,100.00
2023-01-03T08:11:54.237Z,100.00
2023-01-03T08:14:26.040Z,100.00
2023-01-03T08:16:55.757Z,100.00
2023-01-03T08:19:25.046Z,100.00
2023-01-03T08:21:53.465Z,100.00
2023-01-03T08:24:21.832Z,100.00
2023-01-03T08:26:50.309Z,100.00
2023-01-03T08:29:20.670Z,100.00
2023-01-03T08:31:57.230Z,100.00
2023-01-03T08:34:30.801Z,100.00
2023-01-03T08:37:03.723Z,100.00
2023-01-03T08:39:38.188Z,100.00
2023-01-03T08:42:08.890Z,100.00
2023-01-03T08:44:39.038Z,100.00
2023-01-03T08:47:09.470Z,100.00
2023-01-03T08:49:39.706Z,100.00
2023-01-03T08:52:08.199Z,100.00
2023-01-03T08:54:37.105Z,100.00
2023-01-03T08:57:06.055Z,100.00
2023-01-03T08:59:34.494Z,100.00
2023-01-03T09:02:03.419Z,100.00
2023-01-03T09:04:32.238Z,100.00
2023-01-03T09:07:00.773Z,100.00
2023-01-03T09:09:29.075Z,100.00
2023-01-03T09:11:57.499Z,100.00
2023-01-03T09:14:25.864Z,100.00
2023-01-03T09:16:54.256Z,100.00
2023-01-03T09:19:23.070Z,100.00
2023-01-03T09:21:53.369Z,100.00
2023-01-03T09:24:21.756Z,100.00
2023-01-03T09:26:54.467Z,100.00
2023-01-03T09:29:23.745Z,100.00
2023-01-03T09:31:52.413Z,100.00
2023-01-03T09:34:21.043Z,100.00
2023-01-03T09:36:49.375Z,100.00
2023-01-03T09:39:17.795Z,100.00
2023-01-03T09:42:07.336Z,100.00
2023-01-03T09:44:36.049Z,100.00
2023-01-03T09:47:05.105Z,100.00
2023-01-03T09:49:51.947Z,100.00
2023-01-03T09:52:50.826Z,100.00
2023-01-03T09:55:49.420Z,100.00
2023-01-03T09:58:40.920Z,100.00
2023-01-03T10:01:49.447Z,100.00
2023-01-03T10:04:24.029Z,100.00
2023-01-03T10:07:16.940Z,100.00
2023-01-03T10:09:54.564Z,100.00
2023-01-03T10:12:48.726Z,100.00
2023-01-03T10:15:45.021Z,100.00
2023-01-03T10:18:55.403Z,100.00
2023-01-03T10:21:50.882Z,100.00
2023-01-03T10:24:30.867Z,100.00
2023-01-03T10:27:24.340Z,99.98
2023-01-03T10:30:00.800Z,99.95
2023-01-03T10:32:53.998Z,99.63
2023-01-03T10:35:31.554Z,99.20
2023-01-03T10:38:00.523Z,98.75
2023-01-03T10:40:42.549Z,98.33
2023-01-03T10:43:16.663Z,98.10
2023-01-03T10:46:23.013Z,97.90
2023-01-03T10:49:26.508Z,97.68
2023-01-03T10:51:51.408Z,97.90
2023-01-03T10:54:19.740Z,98.39
2023-01-03T10:56:49.522Z,98.67
2023-01-03T10:59:32.656Z,97.61
2023-01-03T11:02:15.610Z,95.70
2023-01-03T11:04:44.711Z,95.23
2023-01-03T11:07:17.181Z,95.33
2023-01-03T11:09:57.804Z,95.30
2023-01-03T11:12:36.350Z,94.94
2023-01-03T11:15:17.491Z,94.75
2023-01-03T11:17:58.676Z,94.69
2023-01-03T11:20:57.110Z,94.48
2023-01-03T11:23:49.982Z,93.87
2023-01-03T11:26:28.276Z,93.45
2023-01-03T11:29:27.802Z,93.77
2023-01-03T11:32:11.097Z,93.34
2023-01-03T11:38:18.867Z,93.71
2023-01-03T11:41:18.515Z,93.89
2023-01-03T11:44:20.877Z,93.90
2023-01-03T11:47:01.908Z,93.81
2023-01-03T11:49:49.029Z,93.83
2023-01-03T11:52:45.848Z,93.77
2023-01-03T11:55:31.634Z,93.52
2023-01-03T11:58:15.800Z,93.21
2023-01-03T12:00:44.437Z,93.12
2023-01-03T12:03:44.045Z,92.97
2023-01-03T12:06:17.945Z,93.03
2023-01-03T12:09:17.455Z,92.85
2023-01-03T12:11:45.970Z,92.88
2023-01-03T12:14:44.205Z,92.56
2023-01-03T12:17:26.731Z,91.31
2023-01-03T12:20:02.300Z,90.53
2023-01-03T12:22:48.190Z,90.39
2023-01-03T12:25:22.963Z,89.77
2023-01-03T12:28:11.278Z,89.32
2023-01-03T12:30:55.515Z,89.64
2023-01-03T12:33:26.863Z,90.03
2023-01-03T12:35:58.155Z,89.80
2023-01-03T12:38:52.832Z,89.82
2023-01-03T12:41:33.735Z,89.81
2023-01-03T12:44:37.177Z,89.57
2023-01-03T12:47:07.776Z,89.72
2023-01-03T12:49:50.363Z,89.65
2023-01-03T12:52:25.570Z,89.58
2023-01-03T12:55:14.027Z,89.19
2023-01-03T12:57:49.331Z,89.04
2023-01-03T13:00:45.832Z,89.22
2023-01-03T13:03:35.888Z,89.16
2023-01-03T13:06:16.608Z,89.14
2023-01-03T13:08:51.982Z,88.61
2023-01-03T13:11:23.412Z,88.57
2023-01-03T13:13:59.602Z,88.41
2023-01-03T13:16:34.705Z,88.29
2023-01-03T13:19:46.897Z,88.09
2023-01-03T13:22:48.993Z,88.18
2023-01-03T13:25:35.589Z,88.25
2023-01-03T13:28:07.828Z,88.29
2023-01-03T13:30:38.953Z,88.58
2023-01-03T13:33:20.380Z,88.97
2023-01-03T13:35:48.892Z,89.00
2023-01-03T13:38:24.618Z,89.00
2023-01-03T13:43:51.792Z,89.44
2023-01-03T13:46:33.242Z,89.34
2023-01-03T13:49:08.266Z,89.47
2023-01-03T13:51:41.466Z,89.62
2023-01-03T13:54:17.184Z,89.64
2023-01-03T13:56:45.921Z,89.61
2023-01-03T13:59:32.456Z,89.64
2023-01-03T14:02:10.057Z,89.68
2023-01-03T14:04:57.637Z,89.53
2023-01-03T14:07:35.564Z,89.52
2023-01-03T14:10:45.820Z,89.54
2023-01-03T14:13:16.590Z,89.65
2023-01-03T14:15:49.225Z,89.73
2023-01-03T14:18:26.755Z,89.90
2023-01-03T14:20:58.396Z,90.17
2023-01-03T14:26:18.821Z,90.22
2023-01-03T14:28:53.142Z,90.39
2023-01-03T14:31:27.733Z,90.33
2023-01-03T14:33:59.637Z,90.41
2023-01-03T14:36:28.801Z,90.56
2023-01-03T14:39:00.212Z,90.64
2023-01-03T14:41:38.164Z,90.83
2023-01-03T14:44:09.663Z,91.04
2023-01-03T14:46:40.844Z,91.05
2023-01-03T14:49:34.513Z,91.17
2023-01-03T14:52:09.680Z,91.26
2023-01-03T14:54:38.427Z,91.39
2023-01-03T14:57:06.765Z,91.55
2023-01-03T14:59:35.426Z,91.58
2023-01-03T15:02:04.180Z,91.61
2023-01-03T15:04:32.625Z,91.89
2023-01-03T15:07:11.330Z,91.81
2023-01-03T15:09:42.210Z,91.85
2023-01-03T15:12:15.584Z,91.97
2023-01-03T15:14:43.987Z,92.17
2023-01-03T15:17:16.635Z,92.27
2023-01-03T15:19:53.723Z,92.27
2023-01-03T15:22:26.773Z,92.53
2023-01-03T15:25:04.923Z,92.67
2023-01-03T15:27:40.630Z,92.84
2023-01-03T15:30:29.672Z,93.06
2023-01-03T15:33:02.481Z,93.14
2023-01-03T15:35:38.253Z,93.29
2023-01-03T15:38:37.141Z,93.49
2023-01-03T15:41:46.255Z,93.69
2023-01-03T15:44:20.721Z,93.91
2023-01-03T15:46:50.436Z,93.99
2023-01-03T15:49:23.369Z,94.07
2023-01-03T15:51:51.730Z,94.38
2023-01-03T15:54:21.633Z,94.52
2023-01-03T15:57:00.184Z,94.72
2023-01-03T15:59:33.723Z,94.91
2023-01-03T16:02:04.429Z,95.05
2023-01-03T16:04:32.875Z,95.12
2023-01-03T16:07:01.245Z,95.29
2023-01-03T16:09:29.937Z,95.60
2023-01-03T16:11:58.762Z,95.77
2023-01-03T16:14:35.603Z,95.88
2023-01-03T16:17:05.775Z,95.91
2023-01-03T16:19:34.704Z,96.06
2023-01-03T16:24:54.662Z,96.54
2023-01-03T16:27:25.553Z,96.82
2023-01-03T16:29:55.256Z,97.55
2023-01-03T16:32:29.840Z,97.35
2023-01-03T16:35:02.549Z,96.96
2023-01-03T16:37:31.483Z,96.66
2023-01-03T16:39:59.919Z,96.44
2023-01-03T16:42:28.560Z,96.23
2023-01-03T16:44:58.056Z,96.14
2023-01-03T16:47:32.852Z,96.03
2023-01-03T16:50:22.997Z,95.84
2023-01-03T16:52:53.878Z,95.70
2023-01-03T16:55:32.588Z,95.47
2023-01-03T16:58:01.527Z,95.39
2023-01-03T17:00:32.593Z,95.35
2023-01-03T17:03:02.985Z,95.34
2023-01-03T17:05:37.747Z,95.30
2023-01-03T17:08:08.307Z,95.24
2023-01-03T17:10:40.598Z,95.31
2023-01-03T17:13:33.044Z,95.32
2023-01-03T17:16:03.510Z,95.40
2023-01-03T17:18:38.608Z,95.40
2023-01-03T17:21:11.049Z,95.42
2023-01-03T17:23:40.767Z,95.43
2023-01-03T17:26:17.493Z,95.55
2023-01-03T17:28:48.340Z,95.73
2023-01-03T17:31:24.962Z,95.80
2023-01-03T17:33:54.609Z,95.88
2023-01-03T17:36:26.701Z,96.06
2023-01-03T17:39:00.023Z,96.02
2023-01-03T17:41:28.633Z,96.09
2023-01-03T17:43:56.969Z,96.08
2023-01-03T17:46:46.647Z,95.94
2023-01-03T17:49:25.163Z,96.01
2023-01-03T17:52:02.515Z,96.01
2023-01-03T17:54:38.268Z,96.02
2023-01-03T17:57:10.745Z,96.23
2023-01-03T17:59:39.244Z,96.47
2023-01-03T18:02:20.393Z,96.54
2023-01-03T18:07:42.110Z,96.76
2023-01-03T18:10:21.479Z,96.93
2023-01-03T18:12:49.935Z,97.06
2023-01-03T18:15:21.489Z,97.29
2023-01-03T18:17:49.939Z,97.57
2023-01-03T18:20:19.663Z,97.75
2023-01-03T18:22:49.613Z,97.86
2023-01-03T18:25:24.691Z,97.85
2023-01-03T18:27:52.905Z,97.76
2023-01-03T18:30:21.368Z,97.83
2023-01-03T18:32:49.795Z,97.86
2023-01-03T18:35:28.300Z,97.71
2023-01-03T18:38:01.170Z,97.69
2023-01-03T18:40:30.814Z,97.79
2023-01-03T18:43:10.453Z,97.85
2023-01-03T18:45:40.476Z,97.87
2023-01-03T18:48:22.630Z,97.87
2023-01-03T18:50:58.524Z,97.84
2023-01-03T18:53:33.892Z,97.74
2023-01-03T18:56:03.203Z,97.77
2023-01-03T18:58:36.994Z,97.75
2023-01-03T19:01:07.280Z,97.77
2023-01-03T19:03:39.533Z,97.63
2023-01-03T19:06:30.644Z,97.51
2023-01-03T19:09:05.692Z,97.40
2023-01-03T19:11:36.996Z,97.44
2023-01-03T19:14:06.915Z,97.47
2023-01-03T19:16:37.920Z,97.59
2023-01-03T19:19:10.526Z,97.68
2023-01-03T19:21:42.805Z,97.87
2023-01-03T19:24:34.626Z,97.92
2023-01-03T19:27:18.717Z,97.94
2023-01-03T19:29:48.166Z,97.91
2023-01-03T19:32:23.234Z,97.99
2023-01-03T19:34:52.136Z,98.14
2023-01-03T19:37:21.044Z,98.19
2023-01-03T19:39:49.942Z,98.30
2023-01-03T19:42:59.534Z,98.49
2023-01-03T19:45:40.504Z,98.53
2023-01-03T19:48:21.117Z,98.42
2023-01-03T19:50:50.798Z,98.48
2023-01-03T19:53:19.389Z,98.60
2023-01-03T19:56:22.239Z,98.71
2023-01-03T19:58:51.532Z,98.68
2023-01-03T20:01:20.308Z,98.59
2023-01-03T20:03:51.102Z,98.63
2023-01-03T20:06:20.017Z,98.78
2023-01-03T20:08:48.613Z,98.91
2023-01-03T20:11:20.010Z,99.00
2023-01-03T20:13:49.748Z,99.20
2023-01-03T20:16:18.270Z,99.36
2023-01-03T20:18:49.387Z,99.40
2023-01-03T20:21:22.055Z,99.53
2023-01-03T20:23:57.908Z,99.67
2023-01-03T20:26:31.054Z,99.63
2023-01-03T20:29:00.504Z,99.72
2023-01-03T20:31:29.143Z,99.84
2023-01-03T20:34:00.121Z,99.80
2023-01-03T20:36:36.628Z,99.71
2023-01-03T20:39:28.237Z,99.60
2023-01-03T20:42:03.112Z,99.54
2023-01-03T20:44:32.269Z,99.36
2023-01-03T20:47:01.167Z,99.23
2023-01-03T20:49:30.206Z,99.20
2023-01-03T20:51:58.720Z,99.24
2023-01-03T20:54:27.288Z,99.17
2023-01-03T20:56:55.816Z,99.07
2023-01-03T20:59:24.478Z,98.95
2023-01-03T21:01:53.047Z,98.83
2023-01-03T21:04:21.658Z,98.87
2023-01-03T21:06:52.191Z,98.82
2023-01-03T21:09:22.082Z,98.85
2023-01-03T21:11:50.495Z,98.83
2023-01-03T21:14:18.829Z,98.70
2023-01-03T21:16:48.348Z,98.62
2023-01-03T21:19:24.497Z,98.55
2023-01-03T21:21:55.425Z,98.42
2023-01-03T21:24:25.545Z,98.36
2023-01-03T21:26:53.836Z,98.29
2023-01-03T21:29:22.184Z,98.34
2023-01-03T21:31:50.631Z,98.41
2023-01-03T21:34:21.079Z,98.46
2023-01-03T21:36:49.494Z,98.55
2023-01-03T21:39:17.873Z,98.62
2023-01-03T21:42:04.899Z,98.65
2023-01-03T21:44:33.329Z,98.61
2023-01-03T21:47:01.695Z,98.62
2023-01-03T21:49:30.119Z,98.71
2023-01-03T21:51:58.560Z,98.81
2023-01-03T21:54:26.841Z,98.94
2023-01-03T21:56:55.161Z,98.92
2023-01-03T21:59:30.494Z,99.04
2023-01-03T22:02:17.404Z,98.81
2023-01-03T22:04:46.213Z,98.67
2023-01-03T22:07:14.582Z,98.55
2023-01-03T22:10:01.732Z,98.43
2023-01-03T22:12:30.142Z,98.35
2023-01-03T22:14:58.419Z,98.29
2023-01-03T22:17:26.699Z,98.19
2023-01-03T22:19:55.118Z,98.25
2023-01-03T22:22:23.887Z,98.24
2023-01-03T22:24:52.164Z,98.23
2023-01-03T22:27:20.542Z,98.08
2023-01-03T22:29:48.767Z,98.01
2023-01-03T22:32:17.110Z,98.05
2023-01-03T22:34:45.587Z,97.88
2023-01-03T22:37:14.947Z,97.74
2023-01-03T22:39:43.291Z,97.66
2023-01-03T22:42:16.133Z,97.74
2023-01-03T22:44:47.819Z,97.95
2023-01-03T22:47:16.584Z,97.94
2023-01-03T22:49:44.894Z,97.86
2023-01-03T22:52:13.291Z,97.82
2023-01-03T22:54:41.713Z,97.90
2023-01-03T22:57:10.164Z,98.22
2023-01-03T22:59:38.575Z,98.22
2023-01-03T23:02:07.060Z,98.26
2023-01-03T23:04:35.612Z,98.15
2023-01-03T23:07:04.120Z,98.13
2023-01-03T23:09:32.479Z,98.09
2023-01-03T23:12:33.319Z,98.17
2023-01-03T23:15:02.256Z,98.22
2023-01-03T23:17:49.098Z,98.28
2023-01-03T23:20:17.550Z,98.23
2023-01-03T23:22:45.792Z,98.16
2023-01-03T23:25:14.179Z,98.21
2023-01-03T23:27:42.529Z,98.19
2023-01-03T23:30:11.289Z,98.08
2023-01-03T23:32:39.572Z,97.99
2023-01-03T23:35:08.440Z,98.00
2023-01-03T23:37:36.791Z,97.97
2023-01-03T23:40:05.779Z,97.95
2023-01-03T23:42:34.104Z,98.19
2023-01-03T23:45:02.401Z,98.12
2023-01-03T23:47:30.867Z,98.17
2023-01-03T23:49:59.192Z,98.26
2023-01-03T23:52:27.718Z,98.57
2023-01-03T23:55:00.725Z,98.67
2023-01-03T23:57:32.040Z,98.73
